GLO1450 SBUL-SBSP
Flight info
| Callsign | GLO1450 |
|---|---|
| Flight time | 0h 56m |
| Altitude | 37000 |
| Route | KOMLU DCT DEVIR UZ2 ENTIT |
| Aircraft | B38M/M-SDE1FGHILORVWXY/HB1 |
Departure
| Time | 2026-04-26 18:09 |
|---|---|
| Airport | Ten. Cel. Aviador César Bombonato Airport (SBUL) |
Arrival
| Time | 2026-04-26 19:06 |
|---|---|
| Airport | Congonhas–Deputado Freitas Nobre Airport (SBSP) |
| Time | Latitude | Longitude | Altitude | Speed | Heading |
|---|---|---|---|---|---|
| 2026-04-26 17:32 | -18.89002 | -48.23042 | 3102 ft | 0 kts | 250° |
| 2026-04-26 18:03 | -18.89000 | -48.23037 | 3102 ft | 4 kts | 250° |
| 2026-04-26 18:03 | -18.88993 | -48.23016 | 3103 ft | 4 kts | 244° |
| 2026-04-26 18:04 | -18.88978 | -48.22992 | 3103 ft | 4 kts | 226° |
| 2026-04-26 18:04 | -18.88957 | -48.22975 | 3103 ft | 4 kts | 205° |
| 2026-04-26 18:04 | -18.88948 | -48.22971 | 3103 ft | 0 kts | 202° |
| 2026-04-26 18:06 | -18.88956 | -48.22975 | 3103 ft | 2 kts | 202° |
| 2026-04-26 18:06 | -18.88979 | -48.22985 | 3103 ft | 6 kts | 202° |
| 2026-04-26 18:07 | -18.89022 | -48.22991 | 3103 ft | 6 kts | 147° |
| 2026-04-26 18:07 | -18.89047 | -48.22944 | 3105 ft | 8 kts | 112° |
| 2026-04-26 18:07 | -18.89092 | -48.22915 | 3105 ft | 9 kts | 190° |
| 2026-04-26 18:07 | -18.89140 | -48.22924 | 3104 ft | 12 kts | 178° |
| 2026-04-26 18:08 | -18.89216 | -48.22957 | 3101 ft | 8 kts | 310° |
| 2026-04-26 18:08 | -18.89189 | -48.22956 | 3101 ft | 0 kts | 24° |
| 2026-04-26 18:08 | -18.89025 | -48.22883 | 3107 ft | 64 kts | 22° |
| 2026-04-26 18:09 | -18.88372 | -48.22596 | 3114 ft | 137 kts | 22° |
| 2026-04-26 18:09 | -18.87319 | -48.22133 | 3300 ft | 180 kts | 23° |
| 2026-04-26 18:09 | -18.86126 | -48.21598 | 4133 ft | 190 kts | 23° |
| 2026-04-26 18:09 | -18.84881 | -48.21037 | 4995 ft | 197 kts | 22° |
| 2026-04-26 18:10 | -18.83545 | -48.20439 | 5506 ft | 222 kts | 22° |
| 2026-04-26 18:10 | -18.82116 | -48.19630 | 6018 ft | 247 kts | 41° |
| 2026-04-26 18:10 | -18.81150 | -48.18054 | 6592 ft | 270 kts | 76° |
| 2026-04-26 18:10 | -18.81193 | -48.16033 | 7253 ft | 284 kts | 111° |
| 2026-04-26 18:11 | -18.82290 | -48.14373 | 8302 ft | 283 kts | 141° |
| 2026-04-26 18:11 | -18.84022 | -48.13340 | 9202 ft | 290 kts | 153° |
| 2026-04-26 18:11 | -18.85554 | -48.11987 | 10180 ft | 291 kts | 122° |
| 2026-04-26 18:11 | -18.86276 | -48.09963 | 10841 ft | 305 kts | 102° |
| 2026-04-26 18:12 | -18.86838 | -48.07727 | 11266 ft | 325 kts | 107° |
| 2026-04-26 18:12 | -18.87530 | -48.05377 | 11649 ft | 345 kts | 108° |
| 2026-04-26 18:12 | -18.88295 | -48.02884 | 12013 ft | 364 kts | 110° |
| 2026-04-26 18:12 | -18.89558 | -48.00568 | 12486 ft | 375 kts | 131° |
| 2026-04-26 18:13 | -18.91547 | -47.98789 | 13156 ft | 378 kts | 150° |
| 2026-04-26 18:13 | -18.93109 | -47.97877 | 13638 ft | 380 kts | 152° |
| 2026-04-26 18:13 | -18.95444 | -47.96517 | 14236 ft | 385 kts | 152° |
| 2026-04-26 18:13 | -18.97002 | -47.95617 | 14620 ft | 387 kts | 152° |
| 2026-04-26 18:14 | -19.00162 | -47.93804 | 15331 ft | 392 kts | 152° |
| 2026-04-26 18:14 | -19.02575 | -47.92424 | 15910 ft | 396 kts | 152° |
| 2026-04-26 18:14 | -19.05012 | -47.91031 | 16458 ft | 400 kts | 152° |
| 2026-04-26 18:14 | -19.07469 | -47.89626 | 16990 ft | 403 kts | 152° |
| 2026-04-26 18:15 | -19.09950 | -47.88208 | 17525 ft | 407 kts | 152° |
| 2026-04-26 18:15 | -19.12456 | -47.86775 | 18021 ft | 411 kts | 152° |
| 2026-04-26 18:15 | -19.14988 | -47.85326 | 18473 ft | 415 kts | 152° |
| 2026-04-26 18:15 | -19.17538 | -47.83867 | 18919 ft | 417 kts | 152° |
| 2026-04-26 18:16 | -19.20097 | -47.82401 | 19346 ft | 420 kts | 152° |
| 2026-04-26 18:16 | -19.25235 | -47.79457 | 20180 ft | 425 kts | 152° |
| 2026-04-26 18:16 | -19.27844 | -47.77962 | 20601 ft | 427 kts | 153° |
| 2026-04-26 18:17 | -19.30466 | -47.76459 | 20997 ft | 430 kts | 153° |
| 2026-04-26 18:17 | -19.33108 | -47.74943 | 21404 ft | 432 kts | 153° |
| 2026-04-26 18:17 | -19.35763 | -47.73420 | 21789 ft | 434 kts | 153° |
| 2026-04-26 18:17 | -19.38425 | -47.71892 | 22176 ft | 437 kts | 153° |
| 2026-04-26 18:18 | -19.41103 | -47.70354 | 22560 ft | 439 kts | 153° |
| 2026-04-26 18:18 | -19.43802 | -47.68803 | 22924 ft | 442 kts | 153° |
| 2026-04-26 18:18 | -19.46515 | -47.67244 | 23284 ft | 444 kts | 153° |
| 2026-04-26 18:18 | -19.49233 | -47.65681 | 23620 ft | 446 kts | 153° |
| 2026-04-26 18:19 | -19.51967 | -47.64109 | 23903 ft | 448 kts | 153° |
| 2026-04-26 18:19 | -19.54687 | -47.62544 | 24198 ft | 451 kts | 153° |
| 2026-04-26 18:19 | -19.57460 | -47.60947 | 24478 ft | 454 kts | 153° |
| 2026-04-26 18:19 | -19.60240 | -47.59346 | 24765 ft | 456 kts | 153° |
| 2026-04-26 18:20 | -19.63033 | -47.57737 | 25063 ft | 458 kts | 153° |
| 2026-04-26 18:20 | -19.65839 | -47.56120 | 25367 ft | 460 kts | 153° |
| 2026-04-26 18:20 | -19.68661 | -47.54493 | 25651 ft | 463 kts | 153° |
| 2026-04-26 18:20 | -19.70536 | -47.53412 | 25837 ft | 464 kts | 153° |
| 2026-04-26 18:21 | -19.74353 | -47.51212 | 26218 ft | 467 kts | 153° |
| 2026-04-26 18:21 | -19.77200 | -47.49593 | 26486 ft | 470 kts | 153° |
| 2026-04-26 18:21 | -19.80099 | -47.47942 | 26759 ft | 473 kts | 153° |
| 2026-04-26 18:21 | -19.83011 | -47.46283 | 27045 ft | 475 kts | 153° |
| 2026-04-26 18:22 | -19.85931 | -47.44618 | 27322 ft | 478 kts | 153° |
| 2026-04-26 18:22 | -19.88870 | -47.42943 | 27599 ft | 480 kts | 153° |
| 2026-04-26 18:22 | -19.91822 | -47.41258 | 27876 ft | 483 kts | 153° |
| 2026-04-26 18:22 | -19.94794 | -47.39562 | 28145 ft | 485 kts | 153° |
| 2026-04-26 18:23 | -19.97776 | -47.37860 | 28419 ft | 488 kts | 153° |
| 2026-04-26 18:23 | -20.00771 | -47.36148 | 28689 ft | 490 kts | 153° |
| 2026-04-26 18:23 | -20.03782 | -47.34426 | 28962 ft | 492 kts | 153° |
| 2026-04-26 18:23 | -20.06767 | -47.32720 | 29216 ft | 495 kts | 153° |
| 2026-04-26 18:24 | -20.09810 | -47.30979 | 29475 ft | 497 kts | 153° |
| 2026-04-26 18:24 | -20.12867 | -47.29229 | 29736 ft | 499 kts | 153° |
| 2026-04-26 18:24 | -20.15938 | -47.27471 | 29988 ft | 502 kts | 153° |
| 2026-04-26 18:24 | -20.19020 | -47.25707 | 30225 ft | 503 kts | 153° |
| 2026-04-26 18:25 | -20.22109 | -47.23936 | 30502 ft | 504 kts | 153° |
| 2026-04-26 18:25 | -20.25205 | -47.22161 | 30799 ft | 504 kts | 153° |
| 2026-04-26 18:25 | -20.28250 | -47.20414 | 31096 ft | 503 kts | 153° |
| 2026-04-26 18:25 | -20.31331 | -47.18646 | 31390 ft | 503 kts | 153° |
| 2026-04-26 18:26 | -20.34415 | -47.16875 | 31695 ft | 503 kts | 153° |
| 2026-04-26 18:26 | -20.37502 | -47.15102 | 32021 ft | 502 kts | 153° |
| 2026-04-26 18:26 | -20.40574 | -47.13337 | 32353 ft | 501 kts | 153° |
| 2026-04-26 18:26 | -20.43649 | -47.11569 | 32668 ft | 501 kts | 153° |
| 2026-04-26 18:27 | -20.46717 | -47.09804 | 32998 ft | 501 kts | 153° |
| 2026-04-26 18:27 | -20.49787 | -47.08037 | 33336 ft | 500 kts | 153° |
| 2026-04-26 18:27 | -20.52857 | -47.06270 | 33670 ft | 500 kts | 153° |
| 2026-04-26 18:27 | -20.55916 | -47.04508 | 33990 ft | 500 kts | 153° |
| 2026-04-26 18:28 | -20.58973 | -47.02746 | 34295 ft | 499 kts | 153° |
| 2026-04-26 18:28 | -20.61989 | -47.01009 | 34581 ft | 498 kts | 153° |
| 2026-04-26 18:28 | -20.65052 | -46.99241 | 34846 ft | 498 kts | 153° |
| 2026-04-26 18:28 | -20.68102 | -46.97481 | 35126 ft | 498 kts | 153° |
| 2026-04-26 18:29 | -20.71152 | -46.95721 | 35423 ft | 497 kts | 153° |
| 2026-04-26 18:29 | -20.74193 | -46.93965 | 35726 ft | 496 kts | 153° |
| 2026-04-26 18:29 | -20.77267 | -46.92287 | 36006 ft | 493 kts | 161° |
| 2026-04-26 18:29 | -20.80548 | -46.91343 | 36330 ft | 486 kts | 174° |
| 2026-04-26 18:30 | -20.83851 | -46.90775 | 36540 ft | 487 kts | 174° |
| 2026-04-26 18:30 | -20.87200 | -46.90207 | 36783 ft | 487 kts | 174° |
| 2026-04-26 18:30 | -20.90554 | -46.89662 | 36970 ft | 488 kts | 174° |
| 2026-04-26 18:30 | -20.93908 | -46.89131 | 36974 ft | 487 kts | 174° |
| 2026-04-26 18:31 | -21.00595 | -46.88085 | 36957 ft | 485 kts | 175° |
| 2026-04-26 18:31 | -21.07273 | -46.87040 | 36962 ft | 486 kts | 175° |
| 2026-04-26 18:32 | -21.13947 | -46.85995 | 36955 ft | 487 kts | 175° |
| 2026-04-26 18:32 | -21.20654 | -46.84944 | 36951 ft | 487 kts | 175° |
| 2026-04-26 18:33 | -21.27357 | -46.83893 | 36952 ft | 487 kts | 175° |
| 2026-04-26 18:33 | -21.34068 | -46.82839 | 36947 ft | 487 kts | 175° |
| 2026-04-26 18:34 | -21.40598 | -46.81813 | 36945 ft | 487 kts | 175° |
| 2026-04-26 18:34 | -21.47264 | -46.80764 | 36956 ft | 488 kts | 175° |
| 2026-04-26 18:35 | -21.53994 | -46.79705 | 36955 ft | 487 kts | 175° |
| 2026-04-26 18:35 | -21.60709 | -46.78647 | 36952 ft | 487 kts | 175° |
| 2026-04-26 18:36 | -21.67430 | -46.77587 | 36956 ft | 487 kts | 175° |
| 2026-04-26 18:36 | -21.74099 | -46.76535 | 36964 ft | 488 kts | 175° |
| 2026-04-26 18:37 | -21.80818 | -46.75472 | 36962 ft | 488 kts | 175° |
| 2026-04-26 18:37 | -21.87542 | -46.74409 | 36962 ft | 488 kts | 175° |
| 2026-04-26 18:38 | -21.94266 | -46.73345 | 36951 ft | 488 kts | 175° |
| 2026-04-26 18:38 | -22.00996 | -46.72278 | 36796 ft | 484 kts | 175° |
| 2026-04-26 18:39 | -22.04299 | -46.71755 | 35793 ft | 489 kts | 175° |
| 2026-04-26 18:39 | -22.07692 | -46.71216 | 34787 ft | 492 kts | 175° |
| 2026-04-26 18:39 | -22.11057 | -46.70682 | 34068 ft | 487 kts | 176° |
| 2026-04-26 18:39 | -22.14411 | -46.70149 | 33051 ft | 486 kts | 176° |
| 2026-04-26 18:40 | -22.17766 | -46.69616 | 31979 ft | 487 kts | 176° |
| 2026-04-26 18:40 | -22.21139 | -46.69080 | 30904 ft | 488 kts | 176° |
| 2026-04-26 18:40 | -22.24491 | -46.68547 | 30001 ft | 486 kts | 176° |
| 2026-04-26 18:40 | -22.27823 | -46.68016 | 29060 ft | 481 kts | 176° |
| 2026-04-26 18:41 | -22.31113 | -46.67493 | 28151 ft | 477 kts | 176° |
| 2026-04-26 18:41 | -22.34441 | -46.66975 | 27161 ft | 486 kts | 178° |
| 2026-04-26 18:41 | -22.37803 | -46.66990 | 26369 ft | 482 kts | 192° |
| 2026-04-26 18:41 | -22.41054 | -46.67833 | 25879 ft | 479 kts | 203° |
| 2026-04-26 18:42 | -22.44077 | -46.69196 | 25431 ft | 475 kts | 213° |
| 2026-04-26 18:42 | -22.46748 | -46.71241 | 24876 ft | 467 kts | 224° |
| 2026-04-26 18:42 | -22.49179 | -46.73479 | 24304 ft | 463 kts | 225° |
| 2026-04-26 18:42 | -22.51576 | -46.75787 | 23726 ft | 459 kts | 226° |
| 2026-04-26 18:43 | -22.53933 | -46.78111 | 23175 ft | 456 kts | 226° |
| 2026-04-26 18:43 | -22.56260 | -46.80438 | 22748 ft | 454 kts | 226° |
| 2026-04-26 18:43 | -22.58544 | -46.82740 | 22538 ft | 453 kts | 226° |
| 2026-04-26 18:43 | -22.60840 | -46.85061 | 22316 ft | 452 kts | 226° |
| 2026-04-26 18:44 | -22.63138 | -46.87387 | 22103 ft | 450 kts | 226° |
| 2026-04-26 18:44 | -22.65423 | -46.89700 | 21874 ft | 448 kts | 226° |
| 2026-04-26 18:44 | -22.67755 | -46.91942 | 21629 ft | 450 kts | 219° |
| 2026-04-26 18:44 | -22.70388 | -46.93772 | 21408 ft | 450 kts | 216° |
| 2026-04-26 18:45 | -22.73025 | -46.95585 | 21191 ft | 449 kts | 216° |
| 2026-04-26 18:45 | -22.75663 | -46.97390 | 20991 ft | 447 kts | 216° |
| 2026-04-26 18:45 | -22.78296 | -46.99186 | 20765 ft | 445 kts | 216° |
| 2026-04-26 18:45 | -22.80881 | -47.00950 | 20541 ft | 444 kts | 216° |
| 2026-04-26 18:46 | -22.83493 | -47.02732 | 20319 ft | 442 kts | 216° |
| 2026-04-26 18:46 | -22.86091 | -47.04506 | 20109 ft | 440 kts | 216° |
| 2026-04-26 18:46 | -22.88685 | -47.06270 | 19730 ft | 438 kts | 215° |
| 2026-04-26 18:46 | -22.91259 | -47.08010 | 19102 ft | 434 kts | 215° |
| 2026-04-26 18:47 | -22.93806 | -47.09734 | 18498 ft | 430 kts | 215° |
| 2026-04-26 18:47 | -22.95826 | -47.11102 | 17937 ft | 428 kts | 215° |
| 2026-04-26 18:47 | -22.98343 | -47.12809 | 17259 ft | 424 kts | 214° |
| 2026-04-26 18:47 | -23.00981 | -47.14195 | 16812 ft | 421 kts | 200° |
| 2026-04-26 18:48 | -23.03880 | -47.14745 | 16468 ft | 428 kts | 185° |
| 2026-04-26 18:48 | -23.06855 | -47.14462 | 16139 ft | 431 kts | 173° |
| 2026-04-26 18:48 | -23.09801 | -47.13892 | 15798 ft | 429 kts | 172° |
| 2026-04-26 18:48 | -23.12741 | -47.13287 | 15450 ft | 428 kts | 172° |
| 2026-04-26 18:49 | -23.15654 | -47.12666 | 15108 ft | 425 kts | 171° |
| 2026-04-26 18:49 | -23.18518 | -47.12043 | 14785 ft | 415 kts | 171° |
| 2026-04-26 18:49 | -23.21281 | -47.11436 | 14441 ft | 406 kts | 171° |
| 2026-04-26 18:49 | -23.24030 | -47.10830 | 14108 ft | 398 kts | 171° |
| 2026-04-26 18:50 | -23.26688 | -47.10248 | 13774 ft | 380 kts | 171° |
| 2026-04-26 18:50 | -23.29223 | -47.09693 | 13452 ft | 362 kts | 172° |
| 2026-04-26 18:50 | -23.31635 | -47.09165 | 13157 ft | 346 kts | 172° |
| 2026-04-26 18:50 | -23.33939 | -47.08659 | 12894 ft | 330 kts | 172° |
| 2026-04-26 18:51 | -23.36146 | -47.08175 | 12648 ft | 316 kts | 172° |
| 2026-04-26 18:51 | -23.38277 | -47.07708 | 12424 ft | 309 kts | 172° |
| 2026-04-26 18:51 | -23.40342 | -47.07245 | 12181 ft | 306 kts | 169° |
| 2026-04-26 18:51 | -23.42278 | -47.06279 | 11878 ft | 310 kts | 145° |
| 2026-04-26 18:52 | -23.43741 | -47.04568 | 11616 ft | 310 kts | 124° |
| 2026-04-26 18:52 | -23.44915 | -47.02610 | 11390 ft | 309 kts | 124° |
| 2026-04-26 18:52 | -23.46090 | -47.00643 | 11158 ft | 310 kts | 123° |
| 2026-04-26 18:52 | -23.47257 | -46.98669 | 10907 ft | 310 kts | 123° |
| 2026-04-26 18:53 | -23.48418 | -46.96692 | 10666 ft | 309 kts | 123° |
| 2026-04-26 18:53 | -23.49575 | -46.94714 | 10408 ft | 309 kts | 123° |
| 2026-04-26 18:53 | -23.50725 | -46.92745 | 10125 ft | 307 kts | 122° |
| 2026-04-26 18:53 | -23.51868 | -46.90787 | 9930 ft | 306 kts | 123° |
| 2026-04-26 18:54 | -23.53010 | -46.88828 | 9688 ft | 305 kts | 122° |
| 2026-04-26 18:54 | -23.54147 | -46.86876 | 9440 ft | 305 kts | 122° |
| 2026-04-26 18:54 | -23.55280 | -46.84933 | 9207 ft | 303 kts | 122° |
| 2026-04-26 18:54 | -23.56482 | -46.83062 | 9029 ft | 299 kts | 136° |
| 2026-04-26 18:55 | -23.58138 | -46.81726 | 9019 ft | 297 kts | 149° |
| 2026-04-26 18:55 | -23.59882 | -46.80502 | 9003 ft | 298 kts | 149° |
| 2026-04-26 18:55 | -23.61607 | -46.79292 | 8999 ft | 298 kts | 149° |
| 2026-04-26 18:55 | -23.63358 | -46.78072 | 9008 ft | 297 kts | 150° |
| 2026-04-26 18:56 | -23.64533 | -46.77255 | 8993 ft | 297 kts | 150° |
| 2026-04-26 18:56 | -23.66419 | -46.75946 | 8829 ft | 298 kts | 150° |
| 2026-04-26 18:56 | -23.68163 | -46.74736 | 8650 ft | 297 kts | 150° |
| 2026-04-26 18:56 | -23.69902 | -46.73530 | 8482 ft | 295 kts | 150° |
| 2026-04-26 18:57 | -23.71640 | -46.72325 | 8301 ft | 296 kts | 150° |
| 2026-04-26 18:57 | -23.72206 | -46.71932 | 8244 ft | 296 kts | 150° |
| 2026-04-26 18:57 | -23.75090 | -46.69930 | 7956 ft | 289 kts | 150° |
| 2026-04-26 18:57 | -23.76767 | -46.68766 | 7803 ft | 281 kts | 150° |
| 2026-04-26 18:58 | -23.78367 | -46.67655 | 7726 ft | 264 kts | 150° |
| 2026-04-26 18:58 | -23.79884 | -46.66602 | 7549 ft | 252 kts | 150° |
| 2026-04-26 18:58 | -23.81330 | -46.65597 | 7393 ft | 240 kts | 150° |
| 2026-04-26 18:58 | -23.82682 | -46.64656 | 7268 ft | 225 kts | 150° |
| 2026-04-26 18:59 | -23.83778 | -46.63535 | 7090 ft | 212 kts | 120° |
| 2026-04-26 18:59 | -23.84159 | -46.62030 | 6902 ft | 206 kts | 85° |
| 2026-04-26 18:59 | -23.83810 | -46.60547 | 6793 ft | 200 kts | 55° |
| 2026-04-26 18:59 | -23.83049 | -46.59286 | 6774 ft | 199 kts | 48° |
| 2026-04-26 19:00 | -23.82232 | -46.58065 | 6759 ft | 199 kts | 47° |
| 2026-04-26 19:00 | -23.81403 | -46.56857 | 6673 ft | 198 kts | 47° |
| 2026-04-26 19:00 | -23.80537 | -46.55696 | 6528 ft | 194 kts | 36° |
| 2026-04-26 19:00 | -23.79381 | -46.55110 | 6262 ft | 179 kts | 0° |
| 2026-04-26 19:01 | -23.78578 | -46.55159 | 6098 ft | 173 kts | 342° |
| 2026-04-26 19:01 | -23.77461 | -46.55620 | 5847 ft | 172 kts | 332° |
| 2026-04-26 19:01 | -23.76070 | -46.56416 | 5502 ft | 165 kts | 328° |
| 2026-04-26 19:01 | -23.75422 | -46.56831 | 5319 ft | 160 kts | 327° |
| 2026-04-26 19:02 | -23.74495 | -46.57446 | 5117 ft | 152 kts | 326° |
| 2026-04-26 19:02 | -23.73350 | -46.58231 | 4913 ft | 142 kts | 324° |
| 2026-04-26 19:02 | -23.72790 | -46.58618 | 4775 ft | 140 kts | 325° |
| 2026-04-26 19:02 | -23.72246 | -46.58993 | 4623 ft | 140 kts | 325° |
| 2026-04-26 19:03 | -23.71140 | -46.59760 | 4377 ft | 140 kts | 324° |
| 2026-04-26 19:03 | -23.70318 | -46.60331 | 4181 ft | 141 kts | 325° |
| 2026-04-26 19:03 | -23.69498 | -46.60899 | 4017 ft | 141 kts | 325° |
| 2026-04-26 19:03 | -23.68678 | -46.61469 | 3817 ft | 140 kts | 325° |
| 2026-04-26 19:04 | -23.67853 | -46.62044 | 3638 ft | 141 kts | 326° |
| 2026-04-26 19:04 | -23.67022 | -46.62625 | 3485 ft | 139 kts | 328° |
| 2026-04-26 19:04 | -23.66218 | -46.63191 | 3330 ft | 134 kts | 328° |
| 2026-04-26 19:04 | -23.65455 | -46.63700 | 3148 ft | 124 kts | 324° |
| 2026-04-26 19:05 | -23.63945 | -46.64758 | 2770 ft | 132 kts | 328° |
| 2026-04-26 19:05 | -23.63193 | -46.65281 | 2614 ft | 119 kts | 329° |
| 2026-04-26 19:05 | -23.62726 | -46.65604 | 2609 ft | 58 kts | 327° |
| 2026-04-26 19:06 | -23.62414 | -46.65820 | 2605 ft | 38 kts | 326° |
| 2026-04-26 19:06 | -23.62229 | -46.65949 | 2602 ft | 17 kts | 328° |
| 2026-04-26 19:06 | -23.62213 | -46.66033 | 2602 ft | 12 kts | 221° |
| 2026-04-26 19:06 | -23.62294 | -46.66041 | 2602 ft | 12 kts | 175° |
| 2026-04-26 19:07 | -23.62369 | -46.66009 | 2603 ft | 11 kts | 145° |
| 2026-04-26 19:07 | -23.62403 | -46.65949 | 2603 ft | 10 kts | 116° |
| 2026-04-26 19:07 | -23.62453 | -46.65902 | 2603 ft | 8 kts | 148° |
| 2026-04-26 19:07 | -23.62487 | -46.65879 | 2604 ft | 4 kts | 148° |
| 2026-04-26 19:08 | -23.62498 | -46.65875 | 2604 ft | 0 kts | 184° |
| 2026-04-26 19:08 | -23.62507 | -46.65885 | 2603 ft | 4 kts | 232° |
| 2026-04-26 19:08 | -23.62520 | -46.65914 | 2603 ft | 4 kts | 240° |
| 2026-04-26 19:08 | -23.62531 | -46.65932 | 2603 ft | 2 kts | 236° |
| 2026-04-26 19:09 | -23.62537 | -46.65941 | 2603 ft | 1 kts | 236° |
| 2026-04-26 19:09 | -23.62538 | -46.65943 | 2603 ft | 0 kts | 236° |